x

South Hatteras - 225 South Of Cape Hatteras (41002) Wave Buoy

2:50 - Fri 26th Dec 2014 All times are EST. -5 hours from GMT.

  • Sig Wave height 5.6ft
  • Swell Direction
  • Peak Period 8s
  • Average Period 6s
  • Wind
    11mph, 13mph gusts
  • Sea Temp 73°f
  • Aire Temp 67°f
  • Sea Pressure 1023.5mb
  • South Hatteras - 225 South Of Cape Hatteras
  • South Hatteras - 225 South Of Cape Hatteras

More Historic Weather Station data

Upgrade to MSW Pro to gain access to the past 30 days of data for over 8000 Wavebouys and Weather Stations around the globe.

Join Pro

Comparision Forecast

View Surf forecast
   
vie 12/26 2:50 5.5ft 8s 6s 11 13 mph 1023.5mb 73f 67f
1:50 6ft 8s 6s 11 13 mph 1023.3mb 74f 68f
12:50 6.5ft 8s 6s 11 16 mph 1022.8mb 74f 68f
jue 12/25 11:50 7ft 8s 6s 11 16 mph 1022.7mb 74f 68f
10:50 7.5ft 7s 6s 11 16 mph 1022.8mb 74f 68f
9:50 8ft 8s 7s 13 18 mph 1022.3mb 74f 69f
8:50 8ft 8s 7s 16 20 mph 1021.8mb 74f 69f
7:50 8ft 8s 7s 18 22 mph 1021.2mb 75f 69f
6:50 8.5ft 8s 7s 18 22 mph 1020.9mb 75f 70f
5:50 8ft 8s 6s 18 25 mph 1020.3mb 75f 70f
4:50 8.5ft 8s 6s 16 22 mph 1019.6mb 75f 70f
3:50 8.5ft 7s 6s 18 22 mph 1019.1mb 75f 71f
2:50 9ft 7s 6s 20 25 mph 1018.8mb 74f 72f
1:50  -   -   -  20 25 mph 1018.5mb 74f 72f
12:50 9ft 8s 6s 20 27 mph 1018mb 73f 72f
11:50 9ft 8s 6s 27 31 mph 1017.8mb 73f 73f
10:50 8.5ft 8s 6s 22 27 mph 1017.7mb 72f 74f
9:50 7.5ft 8s 6s 16 18 mph 1017.3mb 72f 73f
8:50 7.5ft 8s 6s 9 11 mph 1016.3mb 72f 73f
7:50 9ft 7s 6s 9 11 mph 1015mb 72f 73f
6:50 9ft 7s 6s 18 22 mph 1014.4mb 72f 73f
5:50 8ft 6s 6s 25 29 mph 1013.4mb 72f 75f
4:50 8ft 7s 6s 27 31 mph 1012.5mb 72f 75f
3:50 7.5ft 6s 6s 25 29 mph 1013.2mb 72f 75f
2:50 7ft 7s 6s 22 27 mph 1013.2mb 72f 75f
1:50 6.5ft 6s 6s 22 27 mph 1013.2mb 72f 75f
12:50 7ft 7s 6s 22 29 mph 1013.5mb 72f 75f
mié 12/24 11:50 7ft 7s 6s 22 29 mph 1014.1mb 72f 75f
10:50 6ft 6s 5s 22 27 mph 1013.9mb 71f 74f
9:50 6.5ft 7s 6s 20 25 mph 1014.5mb 71f 74f
8:50 6ft 7s 6s 18 25 mph 1014.9mb 71f 74f
7:50 5.5ft 6s 5s 18 22 mph 1015.1mb 71f 74f
6:50 5.5ft 6s 5s 18 22 mph 1014.9mb 72f 75f
5:50 5.5ft 6s 5s 18 22 mph 1014.6mb 72f 74f
4:50 5.5ft 6s 5s 18 20 mph 1014.9mb 72f 74f
3:50 5ft 6s 5s 18 20 mph 1015mb 72f 75f
2:50 5ft 6s 5s 20 22 mph 1014.9mb 72f 75f
12:50 5ft 5s 5s 20 25 mph 1014.8mb 72f 75f
11:50 5ft 5s 5s 20 25 mph 1015.9mb 72f 75f
10:50 4.5ft 5s 5s 18 22 mph 1016.7mb 72f 74f
9:50 4.5ft 5s 5s 18 20 mph 1017.5mb 72f 74f
8:50 4.5ft 5s 5s 20 22 mph 1016.8mb 72f 75f
7:50 4.5ft 6s 5s 18 20 mph 1016.5mb 72f 74f
5:50 4.5ft 6s 5s 16 20 mph 1016.7mb 72f 74f
4:50 4.5ft 6s 5s 16 20 mph 1016.9mb 72f 74f
3:50 4.5ft 5s 5s 16 18 mph 1017.4mb 72f 74f
1:50 4ft 6s 5s 13 18 mph 1017.3mb 72f 74f
12:50 4ft 10s 6s 13 16 mph 1017.7mb 72f 74f
mar 12/23 11:50 3.5ft 10s 5s 13 16 mph 1018.2mb 72f 74f
10:50 3.5ft 6s 5s 9 11 mph 1018.3mb 72f 73f
9:50 3.5ft 5s 5s 11 13 mph 1018.2mb 72f 73f
7:50 4ft 6s 5s 11 13 mph 1018.2mb 72f 73f
6:50 4.5ft 5s 5s 11
mph
1017.8mb 72f 73f
5:50 4.5ft 5s 5s 7 9 mph 1017.7mb 72f 73f
4:50 4ft 6s 5s 4 7 mph 1017.8mb 72f 74f
3:50 4ft 9s 5s 9 11 mph 1017.5mb 72f 74f
2:50 4ft 6s 5s 7 9 mph 1017.4mb 72f 74f
1:50 4ft 6s 5s 9
mph
1017.2mb 72f 74f
12:50 4ft 5s 5s 7 9 mph 1017.5mb 72f 74f
11:50 4ft 9s 5s 13 16 mph 1017.4mb 72f 74f
10:50 3.5ft 6s 5s 11 13 mph 1018.8mb 72f 74f
9:50 3.5ft 6s 5s 13 18 mph 1018.6mb 72f 74f
8:50 3.5ft 9s 5s 16 18 mph 1017.9mb 72f 73f
7:50 3.5ft 7s 5s 16 20 mph 1017.3mb 72f 73f
6:50 3.5ft 9s 5s 13 16 mph 1017.2mb 72f 71f
5:50 3.5ft 10s 5s 16 18 mph 1016.6mb 72f 71f
4:50 3.5ft 6s 5s 13 16 mph 1016.3mb 71f 69f
3:50 3.5ft 6s 5s 18 20 mph 1016.1mb 71f 68f
2:50 3.5ft 6s 5s 13 18 mph 1016.6mb 71f 66f
1:50 3.5ft 6s 5s 11 13 mph 1018.4mb 72f 65f
12:50 3.5ft 6s 5s 4
mph
1017.4mb 72f 72f
lun 12/22 11:50 3.5ft 6s 5s 11 13 mph 1017.5mb 72f 73f
10:50 3.5ft 6s 5s 11 13 mph 1017.2mb 72f 73f
9:50 4ft 6s 5s 11 13 mph 1017.1mb 72f 73f
8:50 4.5ft 6s 5s 11 13 mph 1017mb 72f 73f
7:50 4ft 6s 5s 11 13 mph 1016.9mb 72f 73f
6:50 4ft 6s 5s 9 11 mph 1016.6mb 72f 73f
5:50 4ft 6s 5s 9 11 mph 1016.1mb 72f 73f
4:50 4.5ft 6s 5s 13 16 mph 1015.8mb 72f 73f
3:50 4.5ft 6s 5s 16 18 mph 1015.3mb 72f 73f
2:50 4.5ft 6s 5s 13 18 mph 1015.3mb 72f 72f
1:50 4.5ft 7s 6s 11 13 mph 1015.4mb 72f 72f
12:50 4.5ft 6s 5s 11
mph
1016.4mb 72f 71f
11:50 4.5ft 6s 5s 9 11 mph 1017.8mb 72f 71f
10:50 4.5ft 7s 5s 9 11 mph 1019.1mb 72f 70f
9:50 4.5ft 7s 5s 11 13 mph 1019.9mb 72f 69f